Time;durP1;ratioP1;P1;durP2;ratioP2;P2;SDS_P1;SDS_P2;PMS_P1;PMS_P2;Temp;Humidity;BMP_temperature;BMP_pressure;BME280_temperature;BME280_humidity;BME280_pressure;Samples;Min_cycle;Max_cycle;Signal;HPM_P1;HPM_P2
2021/04/16 00:02:19;;;;;;;1.97;1.53;;;5.90;94.80;;;;;;5032863;28;20582;-52
2021/04/16 00:04:45;;;;;;;1.50;1.40;;;5.90;94.20;;;;;;5039087;28;20211;-53
2021/04/16 00:07:12;;;;;;;2.27;1.30;;;5.80;93.90;;;;;;5030678;28;20206;-53
2021/04/16 00:09:38;;;;;;;2.27;1.40;;;5.90;93.50;;;;;;5026541;28;20663;-52
2021/04/16 00:12:06;;;;;;;1.43;1.30;;;5.90;92.90;;;;;;5039387;28;20473;-53
2021/04/16 00:14:33;;;;;;;2.73;1.47;;;5.90;92.70;;;;;;5033216;28;20289;-52
2021/04/16 00:17:00;;;;;;;2.93;1.73;;;5.90;92.80;;;;;;5037860;28;20277;-53
2021/04/16 00:19:26;;;;;;;2.87;1.43;;;5.90;93.50;;;;;;5030393;28;20203;-52
2021/04/16 00:21:53;;;;;;;1.83;1.50;;;5.90;93.70;;;;;;5022865;28;20257;-53
2021/04/16 00:24:19;;;;;;;2.17;1.70;;;5.90;94.60;;;;;;5036857;28;20264;-53
2021/04/16 00:26:45;;;;;;;2.80;1.87;;;5.90;93.10;;;;;;5033532;28;20331;-52
2021/04/16 00:29:12;;;;;;;2.47;1.60;;;5.90;93.60;;;;;;5032569;28;20262;-53
2021/04/16 00:31:50;;;;;;;1.63;1.30;;;5.80;94.30;;;;;;5032880;28;20242;-52
2021/04/16 00:34:22;;;;;;;3.00;1.70;;;5.70;95.00;;;;;;5041026;28;20672;-52
2021/04/16 00:36:50;;;;;;;1.40;1.20;;;5.70;95.10;;;;;;5026489;28;20195;-52
2021/04/16 00:39:21;;;;;;;1.63;1.50;;;5.70;95.30;;;;;;5029456;28;20212;-52
2021/04/16 00:41:49;;;;;;;2.07;1.50;;;5.70;94.90;;;;;;5027918;28;20199;-52
2021/04/16 00:44:16;;;;;;;2.07;1.50;;;5.70;95.30;;;;;;5028734;28;20209;-52
2021/04/16 00:46:54;;;;;;;1.67;1.40;;;5.60;95.60;;;;;;5037917;28;20442;-52
2021/04/16 00:49:32;;;;;;;1.53;1.03;;;5.60;96.90;;;;;;5028288;28;20215;-52
2021/04/16 00:52:02;;;;;;;2.17;1.47;;;5.70;95.50;;;;;;5031484;28;20253;-52
2021/04/16 00:54:34;;;;;;;1.37;1.27;;;5.70;96.10;;;;;;5028309;28;20264;-52
2021/04/16 00:57:02;;;;;;;2.83;2.23;;;5.70;95.80;;;;;;5035038;28;20588;-52
2021/04/16 00:59:31;;;;;;;3.03;1.70;;;5.70;95.70;;;;;;5034549;28;20202;-52
2021/04/16 01:01:59;;;;;;;2.10;1.70;;;5.70;95.60;;;;;;5034348;28;20641;-52
2021/04/16 01:04:28;;;;;;;3.30;1.93;;;5.80;96.30;;;;;;5027342;28;20209;-52
2021/04/16 01:06:54;;;;;;;3.87;1.97;;;5.80;96.60;;;;;;5033099;28;20203;-52
2021/04/16 01:09:21;;;;;;;2.33;1.57;;;5.80;96.50;;;;;;5029450;28;20685;-52
2021/04/16 01:11:47;;;;;;;1.63;1.43;;;5.70;96.30;;;;;;5025584;28;20219;-53
2021/04/16 01:14:15;;;;;;;2.10;1.70;;;5.60;97.10;;;;;;5029933;28;20237;-52
2021/04/16 01:16:43;;;;;;;2.07;1.77;;;5.60;98.00;;;;;;5036555;28;20553;-52
2021/04/16 01:19:43;;;;;;;1.80;1.53;;;5.70;97.80;;;;;;5031249;28;20361;-52
2021/04/16 01:22:31;;;;;;;3.20;1.50;;;5.60;97.60;;;;;;5034087;28;20612;-52
2021/04/16 01:24:59;;;;;;;2.37;1.53;;;5.60;98.40;;;;;;5034557;28;20220;-52
2021/04/16 01:27:27;;;;;;;2.20;1.53;;;5.50;98.30;;;;;;5038723;28;20226;-52
2021/04/16 01:29:54;;;;;;;1.73;1.43;;;5.60;99.90;;;;;;5036603;28;20247;-52
2021/04/16 01:32:27;;;;;;;2.50;1.53;;;5.60;98.40;;;;;;5035279;28;21552;-53
2021/04/16 01:34:54;;;;;;;2.93;1.63;;;5.70;98.70;;;;;;5033622;28;20863;-52
2021/04/16 01:37:21;;;;;;;2.63;1.80;;;5.70;98.60;;;;;;5038482;28;20222;-53
2021/04/16 01:39:47;;;;;;;3.00;1.47;;;5.80;98.10;;;;;;5036694;28;20233;-52
2021/04/16 01:42:14;;;;;;;2.03;1.73;;;5.60;99.90;;;;;;5045971;28;20232;-52
2021/04/16 01:44:44;;;;;;;2.57;1.60;;;5.60;99.90;;;;;;5033854;28;20199;-52
2021/04/16 01:47:13;;;;;;;1.60;1.30;;;5.80;99.70;;;;;;5031407;28;20235;-53
2021/04/16 01:49:47;;;;;;;1.70;1.50;;;5.80;99.30;;;;;;5031688;28;20285;-52
2021/04/16 01:52:18;;;;;;;4.47;1.50;;;5.80;99.90;;;;;;5035082;28;20270;-53
2021/04/16 01:54:47;;;;;;;1.67;1.43;;;5.80;99.90;;;;;;5038066;28;20567;-52
2021/04/16 01:57:33;;;;;;;1.93;1.30;;;5.80;99.50;;;;;;5038232;28;20250;-53
2021/04/16 02:00:00;;;;;;;1.67;1.40;;;5.70;99.90;;;;;;5034494;28;20236;-53
2021/04/16 02:02:31;;;;;;;3.77;1.70;;;5.70;99.90;;;;;;5033750;28;20192;-53
2021/04/16 02:04:58;;;;;;;2.30;1.70;;;5.70;99.90;;;;;;5029541;28;20387;-53
2021/04/16 02:07:28;;;;;;;3.13;1.63;;;5.50;99.90;;;;;;5037166;28;20206;-52
2021/04/16 02:09:55;;;;;;;5.30;1.90;;;5.60;99.90;;;;;;5034443;28;20261;-53
2021/04/16 02:12:23;;;;;;;3.63;2.00;;;5.60;99.90;;;;;;5039031;28;20254;-53
2021/04/16 02:14:50;;;;;;;2.17;1.80;;;5.40;99.90;;;;;;5033639;28;20321;-53
2021/04/16 02:17:28;;;;;;;2.23;1.80;;;5.30;99.90;;;;;;5029968;28;20310;-53
2021/04/16 02:19:57;;;;;;;3.53;1.90;;;5.20;99.90;;;;;;5029318;28;20535;-53
2021/04/16 02:22:26;;;;;;;3.33;2.03;;;5.30;99.90;;;;;;5038195;28;20201;-52
2021/04/16 02:24:52;;;;;;;4.33;2.10;;;5.20;99.90;;;;;;5033886;28;20243;-52
2021/04/16 02:27:23;;;;;;;3.40;2.00;;;5.30;99.90;;;;;;5034378;28;20306;-52
2021/04/16 02:29:49;;;;;;;2.17;1.93;;;5.40;99.90;;;;;;5034792;28;20313;-52
2021/04/16 02:32:18;;;;;;;1.83;1.57;;;5.30;99.90;;;;;;5022139;28;20242;-53
2021/04/16 02:34:46;;;;;;;2.60;2.03;;;5.10;99.90;;;;;;5031555;28;20215;-52
2021/04/16 02:37:15;;;;;;;3.20;2.20;;;5.00;99.90;;;;;;5030461;28;20280;-53
2021/04/16 02:39:42;;;;;;;2.37;1.77;;;5.10;99.90;;;;;;5034690;28;20241;-52
2021/04/16 02:42:10;;;;;;;4.20;1.90;;;4.80;99.90;;;;;;5030428;28;20239;-52
2021/04/16 02:44:36;;;;;;;3.33;2.10;;;4.90;99.90;;;;;;5032576;28;20303;-52
2021/04/16 02:47:06;;;;;;;5.53;1.77;;;4.90;99.90;;;;;;5035872;28;20209;-52
2021/04/16 02:49:33;;;;;;;3.80;1.70;;;5.00;99.90;;;;;;5037904;28;20317;-52
2021/04/16 02:51:59;;;;;;;2.87;1.90;;;4.90;99.90;;;;;;5030337;28;20306;-53
2021/04/16 02:54:26;;;;;;;2.20;1.87;;;5.00;99.90;;;;;;5031591;28;20199;-53
2021/04/16 02:56:52;;;;;;;3.93;2.20;;;4.90;99.90;;;;;;5029629;28;20238;-52
2021/04/16 02:59:19;;;;;;;2.43;1.97;;;4.80;99.90;;;;;;5030758;28;20259;-51
2021/04/16 03:01:46;;;;;;;2.60;1.77;;;4.70;99.90;;;;;;5037811;28;20511;-52
2021/04/16 03:04:12;;;;;;;4.57;1.80;;;4.80;99.90;;;;;;5030339;28;20280;-52
2021/04/16 03:06:39;;;;;;;2.87;1.63;;;4.70;99.90;;;;;;5028682;28;20204;-52
2021/04/16 03:09:06;;;;;;;2.23;1.50;;;4.70;99.90;;;;;;5036345;28;20241;-51
2021/04/16 03:11:33;;;;;;;4.60;1.60;;;4.80;99.90;;;;;;5032311;28;20274;-51
2021/04/16 03:14:00;;;;;;;2.70;1.80;;;4.80;99.90;;;;;;5024537;28;20285;-51
2021/04/16 03:16:28;;;;;;;3.73;2.13;;;4.70;99.90;;;;;;5030733;28;20206;-52
2021/04/16 03:18:56;;;;;;;3.83;1.90;;;4.70;99.90;;;;;;5032689;28;20207;-52
2021/04/16 03:21:24;;;;;;;2.33;1.70;;;4.70;99.90;;;;;;5041279;28;20230;-52
2021/04/16 03:23:51;;;;;;;3.70;1.80;;;4.70;99.90;;;;;;5033907;28;20232;-52
2021/04/16 03:26:17;;;;;;;2.00;1.80;;;4.60;99.90;;;;;;5033111;28;20693;-53
2021/04/16 03:28:44;;;;;;;2.90;2.00;;;4.60;99.90;;;;;;5032586;28;20214;-52
2021/04/16 03:31:11;;;;;;;2.60;1.77;;;4.60;99.90;;;;;;5034219;28;20280;-52
2021/04/16 03:33:38;;;;;;;4.13;2.37;;;4.60;99.90;;;;;;5034915;28;20196;-53
2021/04/16 03:36:07;;;;;;;3.57;1.93;;;4.70;99.90;;;;;;5027880;28;20694;-53
2021/04/16 03:38:33;;;;;;;2.70;1.73;;;4.60;99.90;;;;;;5035562;28;20205;-53
2021/04/16 03:40:59;;;;;;;3.07;1.60;;;4.50;99.90;;;;;;5028530;28;20242;-52
2021/04/16 03:43:26;;;;;;;2.00;1.67;;;4.40;99.90;;;;;;5024386;28;20203;-52
2021/04/16 03:45:52;;;;;;;4.73;2.10;;;4.40;99.90;;;;;;5034202;28;20271;-52
2021/04/16 03:48:19;;;;;;;2.53;1.80;;;4.60;99.90;;;;;;5036850;28;20239;-53
2021/04/16 03:50:46;;;;;;;3.80;2.10;;;4.60;99.90;;;;;;5033900;28;20330;-53
2021/04/16 03:53:12;;;;;;;3.07;2.10;;;4.60;99.90;;;;;;5026995;28;20356;-52
2021/04/16 03:55:40;;;;;;;3.07;1.87;;;4.60;99.90;;;;;;5029432;28;20335;-53
2021/04/16 03:58:07;;;;;;;3.23;2.27;;;4.60;99.90;;;;;;5032057;28;20291;-53
2021/04/16 04:00:37;;;;;;;3.73;1.93;;;4.70;99.90;;;;;;5029160;28;20610;-52
2021/04/16 04:03:05;;;;;;;4.07;2.40;;;4.60;99.90;;;;;;5027717;28;20335;-53
2021/04/16 04:05:32;;;;;;;3.33;2.20;;;4.70;99.90;;;;;;5030931;28;20228;-53
2021/04/16 04:07:59;;;;;;;2.93;2.03;;;4.60;99.90;;;;;;5030982;28;20253;-52
2021/04/16 04:10:28;;;;;;;2.77;1.80;;;4.60;99.90;;;;;;5030606;28;20568;-52
2021/04/16 04:12:54;;;;;;;2.07;1.70;;;4.40;99.90;;;;;;5034731;28;20198;-52
2021/04/16 04:15:21;;;;;;;3.90;2.20;;;4.50;99.90;;;;;;5029856;28;20304;-53
2021/04/16 04:17:47;;;;;;;2.80;2.03;;;4.50;99.90;;;;;;5034110;28;20260;-53
2021/04/16 04:20:23;;;;;;;4.23;1.90;;;4.40;99.90;;;;;;5037809;28;20254;-53
2021/04/16 04:22:50;;;;;;;3.07;2.10;;;4.40;99.90;;;;;;5034694;28;20253;-53
2021/04/16 04:25:21;;;;;;;3.37;2.07;;;4.40;99.90;;;;;;5028288;28;20295;-52
2021/04/16 04:27:48;;;;;;;3.67;2.23;;;4.50;99.90;;;;;;5034620;28;20589;-52
2021/04/16 04:30:16;;;;;;;2.63;1.93;;;4.40;99.90;;;;;;5030033;28;20607;-54
2021/04/16 04:32:42;;;;;;;3.00;2.20;;;4.30;99.90;;;;;;5040739;28;20255;-52
2021/04/16 04:35:09;;;;;;;4.30;2.47;;;4.30;99.90;;;;;;5036173;28;20617;-52
2021/04/16 04:37:38;;;;;;;4.60;2.40;;;4.40;99.90;;;;;;5040016;28;20196;-52
2021/04/16 04:40:06;;;;;;;4.27;2.20;;;4.40;99.90;;;;;;5029682;28;20366;-52
2021/04/16 04:42:32;;;;;;;3.57;2.40;;;4.50;99.90;;;;;;5033237;28;20289;-52
2021/04/16 04:44:59;;;;;;;3.90;2.67;;;4.30;99.90;;;;;;5038237;28;20201;-52
2021/04/16 04:47:26;;;;;;;3.03;2.50;;;4.40;99.90;;;;;;5030950;28;20272;-53
2021/04/16 04:49:52;;;;;;;3.37;2.40;;;4.40;99.90;;;;;;5030608;28;20198;-53
2021/04/16 04:52:28;;;;;;;3.43;2.17;;;4.30;99.90;;;;;;5031600;28;20595;-53
2021/04/16 04:54:57;;;;;;;3.13;2.13;;;4.50;99.90;;;;;;5032697;28;20260;-53
2021/04/16 04:57:25;;;;;;;3.57;2.37;;;4.40;99.90;;;;;;5032755;28;20234;-53
2021/04/16 04:59:51;;;;;;;4.80;2.87;;;4.50;99.90;;;;;;5030539;28;20233;-53
2021/04/16 05:02:19;;;;;;;3.10;2.47;;;4.30;99.90;;;;;;5034362;28;20242;-53
2021/04/16 05:04:46;;;;;;;3.50;2.50;;;4.40;99.90;;;;;;5032280;28;20213;-53
2021/04/16 05:07:13;;;;;;;8.37;2.70;;;4.40;99.90;;;;;;5032042;28;20235;-52
2021/04/16 05:09:39;;;;;;;2.83;2.17;;;4.50;99.90;;;;;;5037913;28;20239;-53
2021/04/16 05:12:06;;;;;;;3.17;2.30;;;4.50;99.90;;;;;;5035379;28;20651;-53
2021/04/16 05:14:33;;;;;;;7.47;3.13;;;4.60;99.90;;;;;;5035993;28;20253;-53
2021/04/16 05:17:03;;;;;;;3.87;2.77;;;4.60;99.90;;;;;;5032598;28;20392;-53
2021/04/16 05:19:30;;;;;;;6.87;3.10;;;4.70;99.90;;;;;;5030970;28;20197;-52
2021/04/16 05:21:58;;;;;;;5.23;2.60;;;4.50;99.90;;;;;;5031314;28;20257;-52
2021/04/16 05:24:25;;;;;;;4.63;2.70;;;4.50;99.90;;;;;;5045519;28;20282;-53
2021/04/16 05:26:51;;;;;;;5.10;3.03;;;4.70;99.90;;;;;;5034632;28;20279;-53
2021/04/16 05:29:18;;;;;;;5.10;2.87;;;4.70;99.90;;;;;;5034070;28;20297;-52
2021/04/16 05:31:44;;;;;;;3.80;2.60;;;4.80;99.90;;;;;;5033514;28;20319;-54
2021/04/16 05:34:10;;;;;;;4.17;2.53;;;4.70;99.90;;;;;;5031174;28;20213;-52
2021/04/16 05:36:36;;;;;;;5.00;2.83;;;4.80;99.90;;;;;;5034279;28;20282;-52
2021/04/16 05:39:03;;;;;;;5.17;2.60;;;4.80;99.90;;;;;;5033486;28;20244;-52
2021/04/16 05:41:29;;;;;;;4.03;2.37;;;5.00;99.90;;;;;;5029547;28;20678;-53
2021/04/16 05:43:56;;;;;;;5.63;2.70;;;4.80;99.90;;;;;;5032860;28;20271;-53
2021/04/16 05:46:22;;;;;;;7.17;2.87;;;4.80;99.90;;;;;;5032991;28;20705;-52
2021/04/16 05:48:48;;;;;;;2.90;2.17;;;4.80;99.90;;;;;;5031167;28;20291;-53
2021/04/16 05:51:15;;;;;;;3.53;2.63;;;5.00;99.90;;;;;;5032457;28;20286;-53
2021/04/16 05:53:41;;;;;;;5.63;2.40;;;5.10;99.90;;;;;;5035155;28;20214;-52
2021/04/16 05:56:08;;;;;;;3.70;2.30;;;5.00;99.90;;;;;;5033012;28;20200;-52
2021/04/16 05:58:34;;;;;;;4.23;2.93;;;5.30;99.90;;;;;;5026870;28;20652;-51
2021/04/16 06:01:00;;;;;;;6.93;3.97;;;5.20;99.90;;;;;;5024236;28;20212;-51
2021/04/16 06:03:30;;;;;;;6.93;3.00;;;5.30;99.90;;;;;;5026713;28;20412;-52
2021/04/16 06:05:58;;;;;;;4.30;2.67;;;5.30;99.90;;;;;;5030543;28;20195;-52
2021/04/16 06:08:26;;;;;;;8.33;2.57;;;5.30;99.90;;;;;;5027986;28;20277;-53
2021/04/16 06:10:53;;;;;;;8.77;3.20;;;5.30;99.90;;;;;;5035992;28;20761;-52
2021/04/16 06:13:19;;;;;;;4.57;2.57;;;5.40;99.90;;;;;;5036887;28;20304;-53
2021/04/16 06:15:45;;;;;;;3.80;2.57;;;5.50;99.90;;;;;;5028543;28;20235;-52
2021/04/16 06:18:12;;;;;;;3.60;2.90;;;5.50;99.90;;;;;;5036680;28;20196;-52
2021/04/16 06:20:39;;;;;;;5.80;3.03;;;5.60;99.90;;;;;;5031937;28;20207;-53
2021/04/16 06:23:05;;;;;;;4.20;3.10;;;5.60;99.90;;;;;;5030416;28;20231;-51
2021/04/16 06:25:33;;;;;;;5.50;2.83;;;5.80;99.90;;;;;;5039485;28;20251;-53
2021/04/16 06:28:01;;;;;;;3.73;2.60;;;6.00;99.90;;;;;;5035593;28;20614;-52
2021/04/16 06:30:28;;;;;;;5.47;3.17;;;5.90;99.90;;;;;;5028580;28;20252;-52
2021/04/16 06:33:17;;;;;;;6.13;2.53;;;6.00;99.90;;;;;;5031474;28;20197;-52
2021/04/16 06:35:51;;;;;;;6.53;2.80;;;6.20;99.90;;;;;;5038756;28;20635;-52
2021/04/16 06:38:20;;;;;;;4.93;2.80;;;6.40;99.90;;;;;;5029172;28;20220;-52
2021/04/16 06:40:52;;;;;;;5.53;3.17;;;6.40;99.90;;;;;;5029056;28;20233;-53
2021/04/16 06:43:22;;;;;;;5.30;2.80;;;6.50;99.90;;;;;;5038606;28;20231;-53
2021/04/16 06:45:59;;;;;;;3.83;2.97;;;6.60;99.90;;;;;;5031921;28;20317;-52
2021/04/16 06:48:26;;;;;;;4.43;2.63;;;6.90;99.90;;;;;;5037275;28;20238;-53
2021/04/16 06:50:58;;;;;;;3.93;2.60;;;6.80;99.90;;;;;;5037040;28;20706;-53
2021/04/16 06:53:39;;;;;;;4.90;2.70;;;6.90;99.90;;;;;;5032568;28;20276;-53
2021/04/16 06:56:14;;;;;;;9.60;2.90;;;7.00;99.90;;;;;;5032898;28;20681;-53
2021/04/16 06:59:01;;;;;;;8.20;2.87;;;6.70;99.90;;;;;;5032866;28;20218;-53
2021/04/16 07:01:48;;;;;;;3.83;2.80;;;6.60;99.90;;;;;;5031918;28;20221;-54
2021/04/16 07:04:33;;;;;;;6.13;2.60;;;6.50;99.90;;;;;;5027655;28;20412;-53
2021/04/16 07:07:07;;;;;;;4.17;3.00;;;6.50;99.90;;;;;;5034007;28;20251;-53
2021/04/16 07:09:40;;;;;;;3.67;2.80;;;6.70;99.90;;;;;;5032289;28;20703;-52
2021/04/16 07:12:14;;;;;;;4.30;3.10;;;6.70;99.90;;;;;;5031987;28;20219;-53
2021/04/16 07:14:48;;;;;;;4.43;2.77;;;6.70;99.90;;;;;;5026746;28;20236;-53
2021/04/16 07:17:18;;;;;;;4.47;3.00;;;6.70;99.90;;;;;;5039174;28;20195;-52
2021/04/16 07:19:44;;;;;;;9.60;3.10;;;6.80;99.90;;;;;;5037586;28;20554;-52
2021/04/16 07:22:19;;;;;;;5.70;3.97;;;6.60;99.90;;;;;;5027750;28;20311;-52
2021/04/16 07:24:46;;;;;;;6.67;3.27;;;6.70;99.90;;;;;;5033530;28;20615;-52
2021/04/16 07:27:36;;;;;;;3.80;2.63;;;6.70;99.90;;;;;;5030794;28;20251;-53
2021/04/16 07:30:07;;;;;;;5.97;3.50;;;6.70;99.90;;;;;;5034221;28;20235;-52
2021/04/16 07:32:42;;;;;;;6.23;2.80;;;6.90;99.90;;;;;;5034108;28;20280;-52
2021/04/16 07:35:20;;;;;;;4.43;3.20;;;6.90;99.90;;;;;;5032196;28;20335;-52
2021/04/16 07:38:12;;;;;;;4.47;3.30;;;7.00;99.90;;;;;;5032731;28;20277;-52
2021/04/16 07:40:43;;;;;;;5.23;3.00;;;7.00;99.90;;;;;;5034560;28;20197;-52
2021/04/16 07:43:33;;;;;;;5.10;2.93;;;6.90;99.90;;;;;;5037314;28;20239;-52
2021/04/16 07:46:00;;;;;;;4.53;3.00;;;7.20;99.90;;;;;;5027425;28;20211;-52
2021/04/16 07:48:33;;;;;;;7.57;3.63;;;7.40;99.90;;;;;;5028986;28;20201;-53
2021/04/16 07:51:04;;;;;;;7.73;3.40;;;7.40;99.90;;;;;;5036835;28;20280;-52
2021/04/16 07:53:41;;;;;;;5.27;2.97;;;7.30;99.90;;;;;;5041887;28;20342;-53
2021/04/16 07:56:17;;;;;;;8.10;3.07;;;7.60;99.90;;;;;;5035234;28;20205;-53
2021/04/16 07:59:05;;;;;;;6.47;2.93;;;8.10;99.90;;;;;;5036034;28;20303;-53
2021/04/16 08:01:34;;;;;;;4.77;3.17;;;8.30;99.90;;;;;;5028214;28;20229;-53
2021/04/16 08:04:04;;;;;;;3.70;2.80;;;8.40;99.90;;;;;;5033375;28;20626;-51
2021/04/16 08:06:35;;;;;;;5.33;2.70;;;8.30;99.90;;;;;;5038195;28;20217;-53
2021/04/16 08:09:08;;;;;;;4.10;2.47;;;8.30;99.90;;;;;;5032042;28;20200;-52
2021/04/16 08:11:35;;;;;;;5.57;2.80;;;8.50;99.90;;;;;;5030180;28;20750;-53
2021/04/16 08:14:10;;;;;;;3.17;2.50;;;8.80;99.90;;;;;;5035740;28;20198;-53
2021/04/16 08:16:40;;;;;;;5.33;2.77;;;9.40;99.90;;;;;;5033769;28;20204;-52
2021/04/16 08:19:19;;;;;;;7.90;2.93;;;9.70;96.50;;;;;;5027682;28;20255;-53
2021/04/16 08:21:49;;;;;;;2.90;2.57;;;10.30;94.80;;;;;;5029547;28;20719;-53
2021/04/16 08:24:37;;;;;;;4.27;3.30;;;10.90;91.90;;;;;;5029611;28;20617;-52
2021/04/16 08:27:06;;;;;;;4.27;2.97;;;10.50;83.10;;;;;;5029983;28;20295;-52
2021/04/16 08:29:38;;;;;;;7.33;2.50;;;11.00;78.30;;;;;;5032353;28;20258;-52
2021/04/16 08:32:23;;;;;;;6.80;2.93;;;11.20;69.50;;;;;;5036596;28;20301;-52
2021/04/16 08:35:13;;;;;;;3.77;2.23;;;11.40;68.00;;;;;;5038696;28;20206;-52
2021/04/16 08:37:55;;;;;;;2.67;2.20;;;11.20;65.90;;;;;;5036082;28;20201;-54
2021/04/16 08:40:45;;;;;;;3.53;2.47;;;11.20;69.20;;;;;;5036108;28;20197;-52
2021/04/16 08:43:38;;;;;;;3.83;2.50;;;11.50;65.00;;;;;;5033204;28;20254;-52
2021/04/16 08:46:25;;;;;;;3.47;2.40;;;11.40;60.60;;;;;;5041226;28;20206;-52
2021/04/16 08:48:55;;;;;;;3.00;2.13;;;11.40;55.20;;;;;;5041554;28;20224;-52
2021/04/16 08:51:32;;;;;;;3.37;2.20;;;11.30;50.70;;;;;;5039758;28;20711;-52
2021/04/16 08:54:08;;;;;;;3.60;2.07;;;12.00;45.80;;;;;;5033413;28;20201;-51
2021/04/16 08:56:49;;;;;;;3.20;2.30;;;11.90;40.80;;;;;;5032449;28;20205;-53
2021/04/16 08:59:16;;;;;;;6.00;2.50;;;12.40;46.10;;;;;;5035358;28;20294;-52
2021/04/16 09:02:02;;;;;;;2.67;1.80;;;12.50;41.80;;;;;;5033846;28;20764;-53
2021/04/16 09:04:32;;;;;;;2.40;2.00;;;12.50;38.60;;;;;;5041394;28;20525;-53
2021/04/16 09:07:00;;;;;;;2.17;1.50;;;12.40;37.70;;;;;;5030373;28;20275;-53
2021/04/16 09:09:53;;;;;;;2.43;1.60;;;13.10;34.80;;;;;;5030828;28;20200;-52
2021/04/16 09:12:52;;;;;;;2.00;1.60;;;13.10;34.90;;;;;;5036698;28;20247;-53
2021/04/16 09:15:18;;;;;;;3.50;1.70;;;13.90;33.10;;;;;;5033513;28;20207;-53
2021/04/16 09:17:54;;;;;;;3.40;2.00;;;13.80;30.50;;;;;;5034265;28;20207;-53
2021/04/16 09:20:25;;;;;;;3.40;1.73;;;13.40;28.90;;;;;;5036926;28;20203;-53
2021/04/16 09:22:56;;;;;;;1.90;1.70;;;13.50;28.30;;;;;;5039791;28;20593;-53
2021/04/16 09:25:49;;;;;;;4.57;1.90;;;13.40;29.90;;;;;;5037701;28;20729;-52
2021/04/16 09:28:21;;;;;;;4.33;2.43;;;13.40;30.10;;;;;;5037543;28;20785;-52
2021/04/16 09:31:00;;;;;;;2.90;1.73;;;13.70;28.70;;;;;;5033748;28;20216;-52
2021/04/16 09:33:38;;;;;;;3.33;2.13;;;14.20;25.00;;;;;;5031239;28;20191;-52
2021/04/16 09:36:28;;;;;;;4.33;2.00;;;13.90;25.90;;;;;;5027962;28;20231;-53
2021/04/16 09:39:14;;;;;;;4.03;1.80;;;13.80;22.80;;;;;;5033468;28;20223;-53
2021/04/16 09:41:47;;;;;;;6.10;1.90;;;14.20;24.00;;;;;;5031358;28;20609;-53
2021/04/16 09:44:28;;;;;;;2.93;2.03;;;14.20;22.40;;;;;;5037607;28;20213;-53
2021/04/16 09:47:01;;;;;;;4.17;1.83;;;13.90;20.80;;;;;;5030231;28;20298;-53
2021/04/16 09:49:52;;;;;;;2.20;2.00;;;13.80;20.30;;;;;;5032811;28;20259;-52
2021/04/16 09:52:33;;;;;;;2.40;1.60;;;13.40;21.40;;;;;;5036161;28;20275;-52
2021/04/16 09:55:00;;;;;;;3.33;1.37;;;13.00;18.60;;;;;;5031924;28;20723;-52
2021/04/16 09:57:41;;;;;;;1.70;1.43;;;13.50;14.80;;;;;;5035655;28;20299;-53
2021/04/16 10:00:36;;;;;;;3.27;1.57;;;14.00;15.00;;;;;;5029833;28;20203;-53
2021/04/16 10:03:20;;;;;;;2.50;1.63;;;14.10;9.90;;;;;;5036553;28;20276;-51
2021/04/16 10:05:47;;;;;;;2.17;1.70;;;13.70;13.80;;;;;;5041717;28;20204;-53
2021/04/16 10:08:33;;;;;;;2.43;1.67;;;14.00;11.90;;;;;;5028964;28;20641;-54
2021/04/16 10:11:04;;;;;;;2.90;1.70;;;14.30;12.00;;;;;;5033821;28;20283;-52
2021/04/16 10:13:39;;;;;;;2.43;1.77;;;13.70;12.50;;;;;;5036703;28;20236;-53
2021/04/16 10:16:36;;;;;;;2.87;1.90;;;14.20;9.40;;;;;;5034900;28;20319;-52
2021/04/16 10:19:11;;;;;;;3.63;1.70;;;14.40;7.50;;;;;;5036401;28;20211;-52
2021/04/16 10:21:39;;;;;;;3.67;1.80;;;14.50;11.70;;;;;;5035433;28;20209;-53
2021/04/16 10:42:25;;;;;;;3.23;1.40;;;13.40;8.50;;;;;;5030786;28;20194;-52
2021/04/16 11:20:39;;;;;;;1.77;1.60;;;15.00;1.00;;;;;;5035631;28;20690;-52
2021/04/16 12:38:30;;;;;;;4.23;1.67;;;16.90;1.00;;;;;;5024549;28;20215;-52
2021/04/16 12:40:58;;;;;;;3.13;1.67;;;16.60;1.00;;;;;;5029712;28;20204;-52
2021/04/16 12:43:25;;;;;;;2.53;1.57;;;16.60;1.00;;;;;;5035327;28;20684;-52
2021/04/16 12:45:53;;;;;;;2.60;1.60;;;16.50;1.00;;;;;;5025719;28;20206;-52
2021/04/16 12:48:21;;;;;;;1.97;1.60;;;16.80;1.00;;;;;;5032691;28;20197;-53
2021/04/16 12:50:48;;;;;;;2.17;1.27;;;15.90;1.00;;;;;;5031051;28;20205;-53
2021/04/16 12:53:14;;;;;;;2.67;1.40;;;16.00;1.00;;;;;;5029422;28;20251;-53
2021/04/16 12:55:40;;;;;;;2.03;1.57;;;16.20;1.00;;;;;;5031356;28;20215;-53
2021/04/16 12:58:08;;;;;;;2.03;1.30;;;16.80;1.00;;;;;;5024880;28;20229;-53
2021/04/16 13:00:39;;;;;;;3.30;1.83;;;16.90;1.00;;;;;;5026436;28;20194;-53
2021/04/16 13:03:28;;;;;;;2.43;1.30;;;17.30;1.00;;;;;;5029844;28;20723;-54
2021/04/16 13:05:56;;;;;;;2.67;1.70;;;17.40;1.00;;;;;;5029145;28;20624;-53
2021/04/16 13:08:23;;;;;;;2.87;1.60;;;16.60;1.00;;;;;;5029332;28;20298;-54
2021/04/16 13:10:49;;;;;;;4.00;1.90;;;16.40;1.00;;;;;;5028066;28;20857;-53
2021/04/16 13:13:16;;;;;;;4.43;1.60;;;16.40;1.00;;;;;;5029592;28;20269;-53
2021/04/16 13:15:42;;;;;;;2.63;1.57;;;15.90;1.00;;;;;;5033863;28;20311;-52
2021/04/16 13:18:31;;;;;;;2.40;1.70;;;16.40;1.00;;;;;;5027160;28;20225;-52
2021/04/16 13:21:00;;;;;;;4.27;1.73;;;16.60;1.00;;;;;;5030125;28;20679;-52
2021/04/16 13:23:26;;;;;;;1.63;1.50;;;16.50;1.00;;;;;;5034908;28;20575;-51
2021/04/16 13:25:53;;;;;;;3.33;1.50;;;16.90;1.00;;;;;;5029589;28;20199;-53
2021/04/16 13:28:20;;;;;;;4.40;2.10;;;16.80;1.00;;;;;;5033219;28;20198;-53
2021/04/16 13:30:46;;;;;;;2.73;1.83;;;16.70;1.00;;;;;;5033300;28;20602;-51
2021/04/16 13:33:17;;;;;;;2.93;1.60;;;16.60;1.00;;;;;;5026701;28;20342;-54
2021/04/16 13:35:54;;;;;;;4.03;1.80;;;16.80;1.00;;;;;;5030566;28;20582;-52
2021/04/16 13:38:30;;;;;;;3.43;1.67;;;16.30;1.00;;;;;;5036544;28;20208;-52
2021/04/16 13:41:00;;;;;;;1.90;1.53;;;16.80;1.00;;;;;;5035506;28;20227;-52
2021/04/16 13:43:28;;;;;;;1.80;1.50;;;16.80;1.00;;;;;;5030778;28;20575;-52
2021/04/16 13:45:54;;;;;;;4.07;1.50;;;16.70;1.00;;;;;;5027484;28;20211;-53
2021/04/16 13:48:21;;;;;;;2.03;1.70;;;16.90;1.00;;;;;;5033808;28;20208;-53
2021/04/16 13:50:48;;;;;;;2.00;1.80;;;16.00;1.00;;;;;;5023188;28;20785;-58
2021/04/16 13:53:15;;;;;;;3.37;1.90;;;16.10;1.00;;;;;;5026241;28;20261;-59
2021/04/16 13:55:42;;;;;;;3.10;1.50;;;16.50;1.00;;;;;;5028312;28;20306;-60
2021/04/16 13:58:08;;;;;;;2.30;1.67;;;16.30;1.00;;;;;;5034712;28;20206;-58
2021/04/16 14:00:39;;;;;;;2.37;1.70;;;16.50;1.00;;;;;;5026050;28;20288;-58
2021/04/16 14:03:43;;;;;;;2.43;1.50;;;17.00;1.00;;;;;;5029634;28;20309;-58
2021/04/16 14:06:21;;;;;;;3.23;1.70;;;17.30;1.00;;;;;;5032557;28;20214;-53
2021/04/16 14:08:55;;;;;;;2.77;1.80;;;17.00;1.00;;;;;;5028168;28;20550;-54
2021/04/16 14:11:22;;;;;;;3.17;1.70;;;16.40;1.00;;;;;;5028969;28;20201;-53
2021/04/16 14:13:49;;;;;;;2.90;1.80;;;16.20;1.00;;;;;;5035049;28;20311;-54
2021/04/16 14:16:34;;;;;;;1.87;1.53;;;15.90;1.00;;;;;;5030478;28;20320;-53
2021/04/16 14:19:25;;;;;;;4.93;1.80;;;15.70;1.00;;;;;;5027522;28;20191;-53
2021/04/16 14:21:57;;;;;;;2.23;1.50;;;16.10;1.00;;;;;;5030503;28;20251;-53
2021/04/16 14:24:25;;;;;;;2.47;1.67;;;16.10;1.00;;;;;;5029070;28;20296;-54
2021/04/16 14:26:53;;;;;;;2.70;1.83;;;16.10;1.00;;;;;;5031748;28;20222;-53
2021/04/16 14:29:19;;;;;;;2.87;1.70;;;16.40;1.00;;;;;;5034869;28;20202;-53
2021/04/16 14:31:46;;;;;;;4.40;1.87;;;16.10;1.00;;;;;;5034155;28;20655;-53
2021/04/16 14:34:19;;;;;;;2.53;1.50;;;15.80;1.00;;;;;;5032395;28;20196;-53
2021/04/16 14:36:46;;;;;;;3.10;1.90;;;15.90;1.00;;;;;;5032199;28;20196;-54
2021/04/16 14:39:13;;;;;;;3.53;1.63;;;16.20;1.00;;;;;;5031250;28;20199;-53
2021/04/16 14:41:40;;;;;;;1.93;1.63;;;15.80;1.00;;;;;;5032809;28;20696;-52
2021/04/16 14:44:14;;;;;;;2.50;1.67;;;15.80;1.00;;;;;;5031909;28;20585;-53
2021/04/16 14:46:49;;;;;;;3.17;1.80;;;16.00;1.00;;;;;;5027471;28;20261;-53
2021/04/16 14:49:19;;;;;;;2.53;1.63;;;16.10;1.00;;;;;;5031081;28;20299;-53
2021/04/16 14:51:47;;;;;;;1.87;1.67;;;15.70;1.00;;;;;;5029534;28;20286;-53
2021/04/16 14:54:34;;;;;;;2.87;1.50;;;15.80;1.00;;;;;;5033088;28;20300;-53
2021/04/16 14:57:01;;;;;;;1.80;1.50;;;15.70;1.00;;;;;;5028216;28;20201;-53
2021/04/16 14:59:30;;;;;;;2.93;1.90;;;15.70;1.00;;;;;;5030915;28;20298;-53
2021/04/16 15:01:56;;;;;;;2.83;1.60;;;15.90;1.00;;;;;;5035260;28;20200;-53
2021/04/16 15:04:23;;;;;;;2.03;1.83;;;15.60;1.00;;;;;;5029839;28;20555;-54
2021/04/16 15:07:00;;;;;;;3.57;1.60;;;16.00;1.00;;;;;;5026262;28;20202;-53
2021/04/16 15:09:49;;;;;;;1.80;1.60;;;15.80;1.00;;;;;;5034139;28;20706;-53
2021/04/16 15:12:21;;;;;;;3.00;1.37;;;15.40;1.00;;;;;;5037558;28;20681;-54
2021/04/16 15:14:50;;;;;;;2.50;1.33;;;15.00;1.00;;;;;;5034390;28;20302;-53
2021/04/16 15:17:17;;;;;;;2.57;1.63;;;14.90;1.00;;;;;;5034042;28;20237;-53
2021/04/16 15:19:47;;;;;;;2.00;1.43;;;15.10;1.00;;;;;;5029568;28;20194;-53
2021/04/16 15:22:22;;;;;;;2.80;1.60;;;15.40;1.00;;;;;;5025113;28;20638;-54
2021/04/16 15:24:51;;;;;;;2.80;1.50;;;15.10;1.00;;;;;;5027679;28;20241;-53
2021/04/16 15:27:22;;;;;;;3.73;1.80;;;15.00;1.00;;;;;;5036744;28;20224;-53